Time;durP1;ratioP1;P1;durP2;ratioP2;P2;SDS_P1;SDS_P2;PMS_P1;PMS_P2;Temp;Humidity;BMP_temperature;BMP_pressure;BME280_temperature;BME280_humidity;BME280_pressure;Samples;Min_cycle;Max_cycle;Signal;HPM_P1;HPM_P2
2023/06/03 00:01:50;;;;;;;3.90;1.50;;;;;;;5.34;61.12;101179.73;104048;277;39829;-70
2023/06/03 00:04:29;;;;;;;3.70;1.50;;;;;;;5.30;61.42;101176.96;103872;277;40781;-71
2023/06/03 00:07:02;;;;;;;;;;;;;;;5.25;61.67;101174.91;104042;277;38492;-72
2023/06/03 00:09:36;;;;;;;3.60;1.60;;;;;;;5.15;62.09;101171.67;104003;277;38330;-70
2023/06/03 00:12:11;;;;;;;3.30;2.00;;;;;;;5.11;62.22;101174.43;104023;277;38250;-68
2023/06/03 00:14:46;;;;;;;3.90;1.70;;;;;;;5.06;62.48;101174.45;104037;277;38736;-71
2023/06/03 00:17:21;;;;;;;4.60;2.00;;;;;;;4.99;62.70;101170.84;103939;277;38269;-70
2023/06/03 00:19:57;;;;;;;3.20;1.60;;;;;;;4.92;63.08;101171.89;103818;277;172777;-69
2023/06/03 00:22:33;;;;;;;2.60;1.50;;;;;;;4.88;63.33;101173.63;103926;277;38575;-70
2023/06/03 00:25:11;;;;;;;3.60;1.60;;;;;;;4.84;63.45;101175.88;103963;277;40300;-72
2023/06/03 00:27:49;;;;;;;3.80;1.60;;;;;;;4.79;63.57;101179.35;103957;277;39120;-72
2023/06/03 00:30:28;;;;;;;5.30;2.10;;;;;;;4.72;63.80;101179.52;103986;277;38329;-72
2023/06/03 00:33:04;;;;;;;7.40;1.60;;;;;;;4.67;64.14;101177.45;103981;277;40447;-72
2023/06/03 00:35:39;;;;;;;3.30;1.70;;;;;;;4.61;64.66;101179.71;103958;277;38225;-71
2023/06/03 00:38:15;;;;;;;4.40;1.70;;;;;;;4.55;64.99;101180.40;104021;277;39720;-72
2023/06/03 00:40:49;;;;;;;2.20;1.60;;;;;;;4.50;65.13;101183.33;103990;277;39936;-72
2023/06/03 00:43:25;;;;;;;4.20;1.70;;;;;;;4.45;65.36;101184.89;104026;277;39401;-72
2023/06/03 00:45:59;;;;;;;3.70;1.60;;;;;;;4.37;65.57;101185.58;104013;277;39463;-72
2023/06/03 00:48:34;;;;;;;3.50;1.70;;;;;;;4.29;65.79;101188.33;103998;277;39456;-72
2023/06/03 00:51:09;;;;;;;3.30;1.90;;;;;;;4.22;66.04;101187.98;104011;277;38540;-72
2023/06/03 00:53:44;;;;;;;2.30;1.50;;;;;;;4.13;66.27;101188.48;103964;277;38367;-70
2023/06/03 00:56:22;;;;;;;4.80;1.60;;;;;;;4.06;66.45;101189.00;103967;265;38765;-70
2023/06/03 00:58:56;;;;;;;4.50;1.90;;;;;;;4.02;66.80;101190.20;103725;277;38271;-70
2023/06/03 01:01:35;;;;;;;3.40;1.70;;;;;;;3.96;67.04;101191.92;103962;276;39516;-70
2023/06/03 01:04:11;;;;;;;;;;;;;;;3.90;67.17;101192.24;104039;277;39843;-69
2023/06/03 01:06:58;;;;;;;2.90;1.60;;;;;;;3.79;67.67;101198.09;103716;277;175596;-69
2023/06/03 01:09:37;;;;;;;2.20;1.40;;;;;;;3.75;67.80;101202.38;103819;277;38493;-71
2023/06/03 01:12:24;;;;;;;3.90;1.50;;;;;;;3.70;67.95;101206.34;103778;278;41808;-71
2023/06/03 01:15:00;;;;;;;5.60;2.10;;;;;;;3.64;68.07;101204.59;104015;277;38845;-69
2023/06/03 01:17:36;;;;;;;7.60;2.20;;;;;;;3.60;68.27;101206.99;104033;277;38518;-71
2023/06/03 01:20:14;;;;;;;3.10;1.80;;;;;;;3.55;68.53;101204.05;104025;277;38399;-71
2023/06/03 01:23:11;;;;;;;2.80;1.60;;;;;;;3.51;68.70;101205.93;104013;265;40027;-71
2023/06/03 01:25:52;;;;;;;8.90;1.80;;;;;;;3.44;68.98;101208.48;104104;277;39660;-71
2023/06/03 01:28:27;;;;;;;4.50;1.40;;;;;;;3.39;69.19;101210.87;104076;277;38724;-71
2023/06/03 01:31:02;;;;;;;3.10;1.50;;;;;;;3.38;69.30;101211.55;104055;277;38447;-71
2023/06/03 01:33:36;;;;;;;4.20;1.70;;;;;;;3.36;69.47;101215.16;104101;277;38372;-69
2023/06/03 01:36:10;;;;;;;4.40;1.90;;;;;;;3.34;69.58;101217.05;103887;277;38775;-72
2023/06/03 01:38:47;;;;;;;3.50;1.90;;;;;;;3.31;69.80;101218.59;104050;277;38468;-71
2023/06/03 01:41:23;;;;;;;3.90;2.10;;;;;;;3.27;69.83;101224.08;104010;277;38837;-70
2023/06/03 01:44:03;;;;;;;3.30;1.90;;;;;;;3.22;70.02;101220.45;104012;277;38105;-70
2023/06/03 01:46:39;;;;;;;3.70;2.00;;;;;;;3.19;70.18;101226.96;103980;277;38721;-71
2023/06/03 01:49:17;;;;;;;4.30;2.30;;;;;;;3.16;70.25;101227.46;104019;277;38532;-70
2023/06/03 01:51:55;;;;;;;4.00;2.10;;;;;;;3.13;70.39;101231.76;103989;277;40379;-70
2023/06/03 01:54:30;;;;;;;3.70;1.90;;;;;;;3.08;70.46;101230.19;104015;277;39978;-71
2023/06/03 01:57:06;;;;;;;3.10;1.50;;;;;;;3.08;70.72;101231.91;104007;277;38239;-71
2023/06/03 01:59:41;;;;;;;3.70;1.60;;;;;;;3.07;70.86;101230.52;103975;277;38248;-70
2023/06/03 02:02:15;;;;;;;2.40;1.40;;;;;;;3.08;71.02;101232.24;104005;277;38999;-71
2023/06/03 02:04:49;;;;;;;2.80;1.60;;;;;;;3.07;70.99;101236.04;104080;277;38373;-72
2023/06/03 02:07:25;;;;;;;2.50;1.60;;;;;;;3.04;71.03;101238.94;104025;277;39931;-73
2023/06/03 02:10:00;;;;;;;2.50;1.60;;;;;;;3.01;71.14;101243.40;104058;277;39640;-70
2023/06/03 02:12:34;;;;;;;2.20;1.50;;;;;;;2.97;71.28;101242.34;104069;277;38233;-70
2023/06/03 02:15:14;;;;;;;3.90;1.50;;;;;;;2.95;71.29;101244.05;104078;277;39441;-71
2023/06/03 02:17:55;;;;;;;2.90;1.60;;;;;;;2.92;71.43;101246.95;104117;277;39527;-72
2023/06/03 02:20:30;;;;;;;2.90;1.50;;;;;;;2.90;71.69;101248.33;104077;277;38498;-71
2023/06/03 02:23:07;;;;;;;5.10;1.50;;;;;;;2.88;71.81;101250.20;104101;277;38690;-70
2023/06/03 02:25:41;;;;;;;2.30;1.50;;;;;;;2.84;72.01;101254.48;104044;276;38941;-68
2023/06/03 02:28:22;;;;;;;2.90;1.40;;;;;;;2.80;72.03;101259.10;104028;277;38443;-70
2023/06/03 02:31:00;;;;;;;3.00;1.60;;;;;;;2.79;72.12;101263.23;103998;277;39698;-69
2023/06/03 02:33:37;;;;;;;4.80;2.10;;;;;;;2.81;72.34;101264.45;103879;277;173147;-72
2023/06/03 02:36:11;;;;;;;3.90;1.50;;;;;;;2.82;72.38;101270.67;104012;277;38629;-71
2023/06/03 02:38:51;;;;;;;2.40;1.50;;;;;;;2.83;72.51;101269.12;103802;277;39702;-71
2023/06/03 02:41:25;;;;;;;2.80;1.70;;;;;;;2.84;72.87;101273.09;103981;277;39650;-72
2023/06/03 02:44:03;;;;;;;3.80;1.60;;;;;;;2.84;72.97;101276.36;104041;277;38212;-71
2023/06/03 02:46:38;;;;;;;2.90;1.60;;;;;;;2.84;72.92;101279.47;104035;277;38626;-71
2023/06/03 02:49:13;;;;;;;2.50;1.60;;;;;;;2.83;73.00;101279.46;104027;277;38760;-72
2023/06/03 02:51:50;;;;;;;1.80;1.40;;;;;;;2.82;73.05;101281.52;103842;277;175610;-71
2023/06/03 02:54:24;;;;;;;3.40;1.70;;;;;;;2.82;73.19;101285.14;104062;277;38538;-70
2023/06/03 02:56:59;;;;;;;2.20;1.60;;;;;;;2.80;73.37;101287.02;104054;277;38398;-70
2023/06/03 02:59:36;;;;;;;3.70;1.50;;;;;;;2.79;73.47;101291.32;104076;269;39666;-70
2023/06/03 03:02:12;;;;;;;3.70;1.90;;;;;;;2.79;73.68;101289.43;103935;277;39508;-70
2023/06/03 03:04:48;;;;;;;5.10;2.00;;;;;;;2.86;74.13;101292.23;103949;277;39366;-72
2023/06/03 03:07:26;;;;;;;2.80;1.70;;;;;;;2.92;74.12;101286.60;103951;277;38801;-72
2023/06/03 03:10:01;;;;;;;4.30;1.60;;;;;;;2.97;74.10;101286.82;103956;277;38236;-70
2023/06/03 03:12:37;;;;;;;3.40;1.80;;;;;;;3.02;74.33;101284.95;103776;277;38532;-71
2023/06/03 03:15:13;;;;;;;3.50;2.10;;;;;;;3.06;74.54;101285.50;103910;277;39707;-72
2023/06/03 03:17:52;;;;;;;3.20;1.70;;;;;;;3.12;74.71;101285.04;103957;265;38277;-72
2023/06/03 03:20:28;;;;;;;2.70;1.50;;;;;;;3.20;74.80;101289.90;103329;277;719307;-70
2023/06/03 03:23:06;;;;;;;2.70;1.50;;;;;;;3.30;75.00;101291.87;103884;277;38526;-71
2023/06/03 03:25:41;;;;;;;2.70;1.90;;;;;;;3.41;74.86;101293.16;103879;277;39737;-71
2023/06/03 03:28:17;;;;;;;3.30;1.90;;;;;;;3.52;74.90;101297.17;103921;277;39780;-71
2023/06/03 03:30:55;;;;;;;3.20;1.60;;;;;;;3.61;74.97;101297.92;103897;274;40059;-70
2023/06/03 03:33:30;;;;;;;4.00;1.90;;;;;;;3.77;74.71;101299.20;103800;277;177929;-71
2023/06/03 03:36:11;;;;;;;2.50;1.80;;;;;;;4.24;74.88;101303.88;103913;277;38546;-72
2023/06/03 03:38:44;;;;;;;2.10;1.60;;;;;;;5.15;74.70;101298.27;103932;277;38603;-71
2023/06/03 03:41:18;;;;;;;2.50;1.60;;;;;;;6.17;73.89;101300.93;103926;277;38432;-71
2023/06/03 03:44:02;;;;;;;2.70;1.60;;;;;;;7.24;72.76;101296.34;103961;277;38366;-70
2023/06/03 03:46:36;;;;;;;2.40;1.50;;;;;;;8.35;71.50;101302.69;103905;277;175306;-70
2023/06/03 03:49:10;;;;;;;3.00;1.50;;;;;;;9.55;69.49;101300.75;103863;277;39796;-73
2023/06/03 03:51:45;;;;;;;3.20;1.80;;;;;;;10.59;65.93;101304.18;103997;277;38668;-73
2023/06/03 03:54:25;;;;;;;3.40;1.50;;;;;;;11.60;62.00;101297.77;103754;279;38239;-72
2023/06/03 03:57:03;;;;;;;2.30;1.50;;;;;;;12.49;58.27;101302.38;104001;277;38508;-73
2023/06/03 03:59:40;;;;;;;5.00;1.50;;;;;;;13.27;54.75;101300.20;104014;277;38500;-72
2023/06/03 04:02:15;;;;;;;2.70;1.50;;;;;;;13.94;52.71;101301.35;103965;277;38524;-72
2023/06/03 04:04:49;;;;;;;2.30;1.20;;;;;;;14.62;50.18;101303.98;103916;277;38881;-71
2023/06/03 04:07:31;;;;;;;2.90;1.30;;;;;;;15.19;48.45;101301.15;103949;277;38346;-72
2023/06/03 04:10:09;;;;;;;2.60;1.30;;;;;;;15.72;46.30;101306.96;103930;277;38272;-71
2023/06/03 04:12:51;;;;;;;3.90;1.40;;;;;;;16.28;44.49;101307.77;103884;277;38565;-72
2023/06/03 04:15:33;;;;;;;2.60;1.10;;;;;;;16.75;42.92;101308.83;103948;277;38237;-70
2023/06/03 04:18:11;;;;;;;2.10;1.10;;;;;;;17.36;41.47;101310.95;103966;277;38293;-71
2023/06/03 04:20:45;;;;;;;;;;;;;;;17.56;40.15;101313.08;103983;277;38580;-71
2023/06/03 04:23:23;;;;;;;2.20;1.30;;;;;;;17.03;40.04;101316.84;103967;277;38689;-72
2023/06/03 04:25:58;;;;;;;2.70;1.10;;;;;;;16.15;40.35;101322.98;103959;277;39646;-72
2023/06/03 04:28:33;;;;;;;3.80;1.60;;;;;;;15.23;40.96;101323.47;103947;277;39434;-71
2023/06/03 04:31:08;;;;;;;2.60;1.30;;;;;;;14.47;42.46;101329.50;103982;277;39639;-70
2023/06/03 04:33:47;;;;;;;2.80;1.10;;;;;;;13.88;43.65;101327.67;104030;277;39960;-72
2023/06/03 04:36:22;;;;;;;3.10;1.20;;;;;;;13.33;44.45;101329.98;103987;277;39236;-71
2023/06/03 04:39:00;;;;;;;4.40;1.50;;;;;;;12.79;45.53;101338.92;104014;277;38389;-71
2023/06/03 04:41:34;;;;;;;2.10;1.20;;;;;;;12.42;46.63;101342.15;104015;277;38318;-71
2023/06/03 04:44:11;;;;;;;3.10;1.50;;;;;;;12.47;47.34;101345.16;104038;277;38342;-71
2023/06/03 04:46:45;;;;;;;3.40;1.20;;;;;;;12.35;47.33;101345.15;104017;269;38609;-71
2023/06/03 04:49:22;;;;;;;3.00;1.40;;;;;;;12.22;47.68;101346.45;103980;277;38914;-72
2023/06/03 04:51:56;;;;;;;2.90;1.20;;;;;;;12.28;47.93;101351.14;103945;277;38350;-71
2023/06/03 04:54:31;;;;;;;3.40;1.20;;;;;;;12.28;48.04;101349.56;103991;277;38458;-72
2023/06/03 04:57:06;;;;;;;5.40;1.40;;;;;;;12.34;48.39;101349.75;103943;277;38441;-71
2023/06/03 04:59:43;;;;;;;3.00;1.10;;;;;;;12.66;48.48;101350.34;103944;277;38754;-70
2023/06/03 05:02:20;;;;;;;3.30;1.20;;;;;;;13.46;49.47;101343.89;104027;277;38741;-71
2023/06/03 05:04:57;;;;;;;4.30;1.20;;;;;;;14.77;48.09;101336.77;104042;277;38519;-72
2023/06/03 05:07:33;;;;;;;7.40;2.00;;;;;;;15.94;46.17;101335.69;104003;277;38265;-72
2023/06/03 05:10:09;;;;;;;10.30;1.70;;;;;;;17.03;44.15;101334.96;103982;277;174725;-72
2023/06/03 05:12:49;;;;;;;3.10;1.10;;;;;;;17.92;41.72;101332.72;104037;277;38788;-70
2023/06/03 05:15:28;;;;;;;2.50;0.90;;;;;;;18.71;39.65;101335.49;104028;277;38307;-72
2023/06/03 05:18:10;;;;;;;3.20;1.00;;;;;;;19.31;37.72;101341.05;104057;277;38602;-70
2023/06/03 05:20:48;;;;;;;1.80;1.00;;;;;;;19.67;36.43;101344.77;104021;277;38226;-70
2023/06/03 05:23:25;;;;;;;3.60;1.20;;;;;;;20.00;36.16;101345.57;104039;277;39674;-72
2023/06/03 05:25:59;;;;;;;2.90;1.00;;;;;;;20.51;35.31;101344.63;103826;278;40558;-72
2023/06/03 05:28:41;;;;;;;3.70;1.10;;;;;;;20.91;34.43;101343.80;104076;276;38323;-72
2023/06/03 05:31:20;;;;;;;4.10;1.30;;;;;;;21.40;33.74;101340.39;104077;277;39427;-72
2023/06/03 05:33:57;;;;;;;2.20;1.00;;;;;;;21.81;33.43;101341.86;104045;277;38208;-73
2023/06/03 05:36:32;;;;;;;2.20;0.90;;;;;;;22.22;31.84;101339.35;104050;277;38360;-71
2023/06/03 05:39:07;;;;;;;2.30;0.90;;;;;;;22.26;31.55;101344.39;104085;277;39841;-70
2023/06/03 05:41:49;;;;;;;2.60;1.00;;;;;;;22.60;31.19;101348.70;104070;277;38490;-71
2023/06/03 05:44:25;;;;;;;3.30;1.00;;;;;;;23.21;30.55;101343.63;104029;277;38319;-71
2023/06/03 05:47:00;;;;;;;3.40;1.40;;;;;;;23.50;30.08;101345.52;104036;277;38361;-71
2023/06/03 05:49:37;;;;;;;6.30;1.40;;;;;;;23.91;28.96;101347.46;104022;277;38389;-70
2023/06/03 05:52:12;;;;;;;7.90;1.80;;;;;;;23.96;28.03;101351.73;104051;277;38440;-72
2023/06/03 05:54:50;;;;;;;3.20;1.10;;;;;;;24.08;29.26;101353.84;104049;277;38775;-72
2023/06/03 05:57:26;;;;;;;3.10;1.10;;;;;;;24.64;28.13;101351.79;103808;277;39644;-72
2023/06/03 06:00:02;;;;;;;2.00;1.20;;;;;;;24.85;27.48;101349.59;104001;277;38844;-72
2023/06/03 06:02:40;;;;;;;1.60;0.90;;;;;;;24.99;27.21;101353.04;104009;277;38252;-72
2023/06/03 06:05:21;;;;;;;2.00;1.00;;;;;;;25.14;26.41;101354.88;103816;277;38278;-70
2023/06/03 06:07:59;;;;;;;4.70;1.10;;;;;;;25.07;26.33;101356.90;104006;276;38227;-71
2023/06/03 06:10:33;;;;;;;5.00;1.30;;;;;;;25.11;26.46;101356.92;104065;277;38269;-70
2023/06/03 06:13:12;;;;;;;3.40;0.80;;;;;;;25.41;26.53;101358.66;104033;277;39614;-71
2023/06/03 06:15:59;;;;;;;4.60;1.00;;;;;;;25.73;25.42;101352.69;104073;277;38809;-71
2023/06/03 06:18:34;;;;;;;2.90;0.80;;;;;;;25.84;25.58;101357.11;104085;277;38479;-70
2023/06/03 06:21:10;;;;;;;1.60;0.80;;;;;;;25.75;24.69;101358.58;103339;277;886819;-70
2023/06/03 06:23:45;;;;;;;1.20;0.90;;;;;;;25.50;25.15;101361.66;104078;277;38497;-73
2023/06/03 06:26:23;;;;;;;1.30;0.70;;;;;;;25.41;25.49;101368.69;104059;277;39654;-73
2023/06/03 06:28:58;;;;;;;1.70;1.00;;;;;;;25.70;25.56;101367.10;104038;277;38243;-71
2023/06/03 06:31:32;;;;;;;3.30;1.00;;;;;;;25.92;24.66;101364.98;104026;265;38263;-72
2023/06/03 06:34:12;;;;;;;5.30;1.10;;;;;;;25.81;25.05;101365.83;104035;277;38651;-72
2023/06/03 06:36:52;;;;;;;2.60;1.00;;;;;;;25.97;24.57;101365.79;103840;277;39673;-71
2023/06/03 06:39:50;;;;;;;3.10;0.60;;;;;;;26.19;24.53;101365.48;104058;277;38460;-72
2023/06/03 06:42:37;;;;;;;1.90;0.80;;;;;;;26.75;23.89;101362.42;104042;277;39426;-71
2023/06/03 06:45:24;;;;;;;6.30;0.90;;;;;;;27.41;23.39;101357.64;104050;276;38539;-71
2023/06/03 06:48:06;;;;;;;3.00;0.80;;;;;;;27.76;22.54;101364.83;104060;276;38577;-71
2023/06/03 06:51:00;;;;;;;3.50;0.80;;;;;;;27.61;22.48;101358.27;104035;277;38613;-70
2023/06/03 06:53:37;;;;;;;3.10;0.80;;;;;;;27.59;22.35;101357.96;104072;276;39044;-72
2023/06/03 06:56:17;;;;;;;3.00;0.70;;;;;;;27.63;22.15;101358.98;104063;277;39312;-72
2023/06/03 06:58:57;;;;;;;1.30;0.70;;;;;;;27.74;22.72;101359.05;104073;277;38239;-71
2023/06/03 07:01:33;;;;;;;2.10;0.80;;;;;;;27.93;22.05;101358.71;104047;277;38303;-71
2023/06/03 07:04:10;;;;;;;2.80;1.10;;;;;;;27.75;21.68;101361.66;104034;277;38312;-70
2023/06/03 07:06:44;;;;;;;2.10;0.70;;;;;;;27.17;22.09;101359.33;104043;277;38404;-71
2023/06/03 07:09:27;;;;;;;1.70;0.60;;;;;;;27.13;22.68;101354.16;104039;277;38381;-72
2023/06/03 07:12:01;;;;;;;1.70;1.00;;;;;;;27.32;22.38;101350.79;104042;277;39742;-71
2023/06/03 07:14:39;;;;;;;5.30;0.80;;;;;;;27.44;21.81;101356.11;104020;277;38259;-71
2023/06/03 07:17:16;;;;;;;2.20;0.60;;;;;;;27.13;21.69;101350.63;103856;277;38807;-71
2023/06/03 07:19:53;;;;;;;6.60;0.90;;;;;;;27.26;21.60;101353.92;104081;277;38452;-71
2023/06/03 07:22:27;;;;;;;4.50;0.80;;;;;;;27.17;21.91;101346.98;104011;277;39807;-71
2023/06/03 07:25:04;;;;;;;0.80;0.40;;;;;;;27.11;21.59;101348.60;104009;277;38258;-72
2023/06/03 07:27:38;;;;;;;2.60;0.80;;;;;;;26.84;21.61;101346.67;104023;277;38252;-71
2023/06/03 07:30:18;;;;;;;1.30;0.70;;;;;;;26.59;21.88;101342.27;104027;276;38275;-71
2023/06/03 07:32:59;;;;;;;2.40;0.60;;;;;;;26.65;22.46;101346.89;104001;277;38499;-71
2023/06/03 07:35:33;;;;;;;1.80;0.60;;;;;;;26.83;21.62;101346.60;104013;277;39053;-72
2023/06/03 07:38:08;;;;;;;2.20;0.80;;;;;;;26.97;21.49;101342.71;104052;277;39119;-72
2023/06/03 07:40:48;;;;;;;3.20;1.00;;;;;;;27.02;21.72;101342.05;104040;277;38522;-72
2023/06/03 07:43:23;;;;;;;4.00;0.90;;;;;;;27.24;21.32;101345.67;104035;277;38463;-71
2023/06/03 07:46:00;;;;;;;2.00;0.60;;;;;;;26.81;21.58;101350.08;104096;277;38652;-70
2023/06/03 07:48:37;;;;;;;2.20;0.60;;;;;;;26.40;21.83;101351.67;104130;276;38895;-72
2023/06/03 07:51:19;;;;;;;3.10;0.50;;;;;;;26.37;21.87;101351.17;104043;277;39841;-72
2023/06/03 07:53:56;;;;;;;1.30;0.60;;;;;;;26.24;21.93;101348.44;104102;276;39684;-79
2023/06/03 07:56:30;;;;;;;0.50;0.50;;;;;;;26.43;22.39;101348.89;104069;277;38015;-79
2023/06/03 07:59:10;;;;;;;4.10;0.70;;;;;;;26.76;22.14;101358.77;103813;277;38261;-72
2023/06/03 08:01:50;;;;;;;2.60;0.90;;;;;;;27.51;21.58;101351.00;104017;277;39666;-72
2023/06/03 08:04:34;;;;;;;1.10;0.50;;;;;;;27.84;20.81;101354.17;104037;277;38277;-70
2023/06/03 08:07:15;;;;;;;1.70;0.50;;;;;;;27.64;20.35;101355.36;104004;276;38410;-71
2023/06/03 08:09:55;;;;;;;0.50;0.40;;;;;;;27.45;20.15;101355.15;104030;277;39421;-72
2023/06/03 08:12:38;;;;;;;1.50;0.50;;;;;;;27.22;20.00;101355.33;103862;277;38425;-71
2023/06/03 08:15:26;;;;;;;0.80;0.50;;;;;;;26.98;20.63;101351.75;104056;277;39915;-71
2023/06/03 08:18:06;;;;;;;2.90;0.70;;;;;;;27.34;21.17;101357.80;104133;277;39495;-71
2023/06/03 08:20:46;;;;;;;1.00;0.50;;;;;;;27.92;20.61;101358.27;104052;277;39786;-72
2023/06/03 08:23:21;;;;;;;2.90;0.80;;;;;;;28.21;19.77;101357.71;104077;277;39890;-71
2023/06/03 08:26:00;;;;;;;3.10;0.60;;;;;;;28.13;19.96;101361.21;104062;277;38706;-73
2023/06/03 08:28:35;;;;;;;1.40;0.60;;;;;;;28.16;19.75;101357.95;104044;276;38372;-72
2023/06/03 08:31:10;;;;;;;2.80;0.90;;;;;;;28.43;20.11;101356.72;104005;277;38361;-72
2023/06/03 08:33:48;;;;;;;4.80;0.70;;;;;;;28.92;20.03;101359.02;104059;277;38634;-71
2023/06/03 08:36:25;;;;;;;1.90;0.50;;;;;;;29.38;19.39;101361.63;104055;265;38467;-71
2023/06/03 08:39:01;;;;;;;4.30;0.60;;;;;;;29.38;18.84;101355.63;104031;277;39450;-72
2023/06/03 08:41:41;;;;;;;1.20;0.70;;;;;;;28.95;18.51;101364.86;104028;277;38236;-72
2023/06/03 08:44:26;;;;;;;1.60;0.60;;;;;;;27.87;19.33;101359.77;103874;276;38954;-72
2023/06/03 08:47:09;;;;;;;1.20;0.70;;;;;;;27.70;20.04;101359.28;103998;276;38256;-72
2023/06/03 08:49:53;;;;;;;2.20;0.60;;;;;;;28.03;20.42;101364.04;104006;277;39126;-72
2023/06/03 08:52:37;;;;;;;1.80;0.60;;;;;;;27.84;19.65;101364.02;103989;277;38322;-72
2023/06/03 08:55:14;;;;;;;1.20;0.40;;;;;;;27.85;20.03;101366.59;104062;277;38307;-72
2023/06/03 08:58:13;;;;;;;1.00;0.40;;;;;;;28.16;20.15;101364.17;104026;277;39040;-72
2023/06/03 09:00:47;;;;;;;2.00;0.70;;;;;;;28.64;19.51;101366.16;103849;277;38455;-71
2023/06/03 09:03:29;;;;;;;2.00;0.80;;;;;;;28.17;18.72;101365.93;104047;277;38260;-77
2023/06/03 09:06:13;;;;;;;1.10;0.50;;;;;;;27.34;19.16;101362.23;104000;277;38239;-73
2023/06/03 09:08:54;;;;;;;1.60;0.50;;;;;;;26.44;19.92;101362.88;104088;277;38272;-73
2023/06/03 09:11:34;;;;;;;0.60;0.50;;;;;;;25.62;21.46;101366.33;103890;277;39795;-72
2023/06/03 09:14:12;;;;;;;2.20;0.70;;;;;;;25.47;21.14;101369.61;104104;277;38505;-73
2023/06/03 09:16:57;;;;;;;3.50;0.60;;;;;;;25.20;21.37;101370.91;104089;275;39112;-72
2023/06/03 09:19:36;;;;;;;1.40;0.50;;;;;;;24.83;21.17;101366.72;104082;277;38490;-70
2023/06/03 09:22:11;;;;;;;1.90;0.50;;;;;;;24.67;22.51;101369.58;104068;265;38361;-71
2023/06/03 09:24:47;;;;;;;1.60;0.50;;;;;;;24.64;21.83;101371.62;104034;277;38479;-72
2023/06/03 09:27:22;;;;;;;1.20;0.70;;;;;;;24.42;21.62;101372.13;104050;277;38291;-71
2023/06/03 09:30:01;;;;;;;2.20;0.70;;;;;;;24.02;21.72;101371.01;104015;277;39418;-71
2023/06/03 09:32:37;;;;;;;1.40;0.60;;;;;;;23.63;21.83;101367.13;104033;276;38220;-70
2023/06/03 09:35:15;;;;;;;0.80;0.50;;;;;;;23.27;22.83;101369.88;103935;277;171833;-72
2023/06/03 09:38:05;;;;;;;1.30;0.60;;;;;;;23.06;23.04;101364.14;104073;277;39936;-71
2023/06/03 09:40:43;;;;;;;0.60;0.50;;;;;;;22.95;23.89;101363.40;103892;277;188078;-71
2023/06/03 09:43:28;;;;;;;0.50;0.50;;;;;;;22.84;23.94;101361.30;104069;277;38222;-71
2023/06/03 09:46:10;;;;;;;0.90;0.50;;;;;;;22.90;25.37;101355.73;103818;276;38246;-72
2023/06/03 09:48:45;;;;;;;0.70;0.50;;;;;;;23.06;25.13;101361.14;104024;277;38548;-72
2023/06/03 09:51:21;;;;;;;2.30;1.00;;;;;;;23.15;24.92;101364.20;104045;277;38372;-70
2023/06/03 09:54:01;;;;;;;5.10;0.50;;;;;;;23.20;24.48;101359.73;104040;265;39412;-72
2023/06/03 09:56:36;;;;;;;1.30;0.50;;;;;;;23.15;24.02;101365.05;104041;277;38434;-72
2023/06/03 09:59:25;;;;;;;1.50;0.50;;;;;;;23.07;24.04;101365.48;104068;276;39884;-71
2023/06/03 10:02:04;;;;;;;1.00;0.50;;;;;;;22.86;23.31;101361.16;104068;277;38487;-73
2023/06/03 10:04:45;;;;;;;1.20;0.50;;;;;;;22.67;23.89;101366.64;104107;277;38416;-69
2023/06/03 10:07:49;;;;;;;0.60;0.50;;;;;;;22.38;23.20;101371.79;104089;265;39396;-70
2023/06/03 10:10:27;;;;;;;2.20;0.40;;;;;;;22.14;23.79;101370.63;104113;277;38279;-72
2023/06/03 10:13:21;;;;;;;1.80;0.50;;;;;;;22.22;24.60;101370.98;103820;278;39656;-72
2023/06/03 10:16:01;;;;;;;1.60;1.00;;;;;;;22.19;24.46;101363.02;104045;265;38232;-71
2023/06/03 10:18:45;;;;;;;1.50;0.60;;;;;;;22.25;25.08;101364.32;104085;277;38849;-71
2023/06/03 10:21:27;;;;;;;2.00;0.60;;;;;;;22.34;24.53;101363.55;103728;278;174640;-71
2023/06/03 10:24:09;;;;;;;1.00;0.40;;;;;;;22.31;24.08;101364.82;104079;277;39428;-72
2023/06/03 10:26:48;;;;;;;2.30;0.60;;;;;;;22.07;23.91;101366.16;103919;276;174690;-72
2023/06/03 10:29:30;;;;;;;3.90;0.60;;;;;;;21.71;24.21;101360.50;104071;277;38257;-72
2023/06/03 10:32:13;;;;;;;1.70;0.50;;;;;;;21.36;24.35;101361.96;103844;278;39421;-72
2023/06/03 10:34:52;;;;;;;1.10;0.60;;;;;;;21.19;25.13;101360.25;103420;276;909291;-71
2023/06/03 10:37:29;;;;;;;1.20;0.60;;;;;;;21.27;26.06;101358.33;103860;278;38736;-72
2023/06/03 10:40:13;;;;;;;1.20;0.70;;;;;;;21.32;25.77;101343.60;104059;274;38234;-70
2023/06/03 10:42:52;;;;;;;2.70;0.60;;;;;;;21.23;26.05;101348.23;104094;277;38607;-72
2023/06/03 10:45:36;;;;;;;2.60;0.60;;;;;;;21.18;26.02;101353.05;104065;277;38259;-71
2023/06/03 10:48:19;;;;;;;2.10;0.90;;;;;;;21.17;25.24;101354.88;103816;277;38386;-70
2023/06/03 10:51:05;;;;;;;2.00;0.60;;;;;;;21.05;25.36;101351.06;104069;277;38284;-72
2023/06/03 10:53:54;;;;;;;1.40;0.70;;;;;;;20.97;25.00;101350.88;104058;276;38210;-72
2023/06/03 10:56:35;;;;;;;3.00;0.60;;;;;;;20.86;25.31;101348.77;104056;277;38223;-72
2023/06/03 10:59:17;;;;;;;1.20;0.40;;;;;;;20.68;25.00;101343.36;103996;277;39401;-71
2023/06/03 11:02:08;;;;;;;1.30;0.50;;;;;;;20.55;25.17;101337.48;103992;277;38758;-72
2023/06/03 11:04:47;;;;;;;2.30;0.50;;;;;;;20.41;25.33;101335.20;104028;276;38253;-72
2023/06/03 11:07:54;;;;;;;2.80;0.70;;;;;;;20.31;25.54;101332.81;104019;277;38364;-73
2023/06/03 11:10:44;;;;;;;1.90;0.80;;;;;;;20.15;25.64;101327.61;103960;277;38347;-71
2023/06/03 11:13:45;;;;;;;1.60;0.50;;;;;;;20.19;25.98;101332.85;104020;277;38220;-72
2023/06/03 11:16:21;;;;;;;1.20;0.50;;;;;;;20.08;25.95;101324.32;104009;277;38224;-72
2023/06/03 11:19:06;;;;;;;2.00;0.60;;;;;;;20.08;26.00;101326.09;104009;277;38501;-72
2023/06/03 11:21:58;;;;;;;1.40;0.50;;;;;;;19.98;25.24;101327.95;103467;277;551426;-71
2023/06/03 11:24:58;;;;;;;0.70;0.50;;;;;;;19.93;26.18;101325.80;104021;277;39638;-71
2023/06/03 11:27:33;;;;;;;1.00;0.50;;;;;;;19.85;25.88;101321.00;104028;277;38241;-72
2023/06/03 11:30:16;;;;;;;0.80;0.50;;;;;;;19.89;26.33;101322.34;104024;277;39509;-71
2023/06/03 11:33:14;;;;;;;1.10;0.60;;;;;;;19.97;26.33;101316.52;104074;277;38355;-71
2023/06/03 11:35:59;;;;;;;2.40;0.50;;;;;;;19.85;25.94;101322.39;103875;278;39508;-71
2023/06/03 11:39:02;;;;;;;2.30;0.50;;;;;;;19.75;26.22;101321.27;104085;277;38400;-72
2023/06/03 11:42:08;;;;;;;2.10;0.50;;;;;;;19.89;27.29;101322.32;103845;265;38854;-72
2023/06/03 11:44:46;;;;;;;1.90;0.60;;;;;;;19.93;26.63;101322.10;103998;277;38361;-70
2023/06/03 11:47:23;;;;;;;1.10;0.80;;;;;;;19.87;26.36;101320.46;104021;277;38238;-71
2023/06/03 11:49:59;;;;;;;1.20;0.50;;;;;;;19.81;26.27;101320.84;104020;277;38769;-70
2023/06/03 11:52:41;;;;;;;3.10;0.60;;;;;;;19.78;26.44;101311.88;104017;277;39456;-72
2023/06/03 11:55:31;;;;;;;0.60;0.40;;;;;;;19.83;26.62;101314.52;103904;277;174757;-74
2023/06/03 11:58:22;;;;;;;1.10;0.50;;;;;;;19.91;27.09;101316.34;104012;277;38390;-72
2023/06/03 12:01:10;;;;;;;1.20;0.50;;;;;;;19.92;26.80;101309.92;103982;277;39847;-69
2023/06/03 12:03:57;;;;;;;1.40;0.50;;;;;;;19.81;26.54;101306.70;103816;278;40949;-73
2023/06/03 12:06:42;;;;;;;3.00;0.50;;;;;;;19.67;27.10;101310.75;104052;277;38236;-73
2023/06/03 12:09:21;;;;;;;1.60;1.00;;;;;;;19.63;26.90;101302.69;104035;277;38402;-69
2023/06/03 12:12:02;;;;;;;2.60;0.50;;;;;;;19.61;26.89;101302.62;103833;277;38269;-71
2023/06/03 12:14:48;;;;;;;1.60;0.60;;;;;;;19.56;26.72;101299.14;104124;277;38784;-72
2023/06/03 12:17:28;;;;;;;3.90;0.50;;;;;;;19.49;27.06;101295.86;104069;276;38265;-71
2023/06/03 12:20:05;;;;;;;1.20;0.70;;;;;;;19.48;26.85;101293.45;104108;277;38441;-72
2023/06/03 12:22:46;;;;;;;2.10;0.50;;;;;;;19.46;26.66;101291.48;104043;277;38430;-72
2023/06/03 12:25:30;;;;;;;2.10;0.60;;;;;;;19.40;26.49;101292.20;104030;277;38592;-72